createdAt,value
2023-04-27T00:01:56.674Z,9.27
2023-04-27T00:04:25.305Z,7.78
2023-04-27T00:06:54.061Z,7.75
2023-04-27T00:09:23.896Z,12.75
2023-04-27T00:11:52.331Z,9.30
2023-04-27T00:14:20.992Z,8.27
2023-04-27T00:16:49.669Z,8.05
2023-04-27T00:19:18.211Z,9.52
2023-04-27T00:21:47.204Z,8.65
2023-04-27T00:24:16.011Z,9.13
2023-04-27T00:26:46.106Z,11.65
2023-04-27T00:29:14.740Z,6.78
2023-04-27T00:31:43.340Z,10.45
2023-04-27T00:34:11.788Z,10.25
2023-04-27T00:36:40.214Z,9.50
2023-04-27T00:39:09.171Z,7.72
2023-04-27T00:41:39.427Z,8.55
2023-04-27T00:44:09.341Z,11.00
2023-04-27T00:46:37.838Z,8.10
2023-04-27T00:49:06.430Z,8.85
2023-04-27T00:51:34.829Z,10.13
2023-04-27T00:54:03.444Z,9.15
2023-04-27T00:56:31.900Z,8.63
2023-04-27T00:59:00.945Z,10.27
2023-04-27T01:01:31.447Z,8.13
2023-04-27T01:04:00.095Z,10.63
2023-04-27T01:06:29.779Z,8.48
2023-04-27T01:08:58.201Z,9.82
2023-04-27T01:11:26.785Z,8.07
2023-04-27T01:13:56.941Z,9.85
2023-04-27T01:16:25.474Z,10.07
2023-04-27T01:18:55.676Z,7.78
2023-04-27T01:21:24.112Z,10.07
2023-04-27T01:23:54.005Z,7.30
2023-04-27T01:26:22.522Z,9.75
2023-04-27T01:28:51.104Z,11.18
2023-04-27T01:31:19.558Z,9.07
2023-04-27T01:33:47.974Z,10.35
2023-04-27T01:36:16.449Z,9.50
2023-04-27T01:38:45.069Z,8.70
2023-04-27T01:41:14.894Z,10.88
2023-04-27T01:43:43.789Z,10.18
2023-04-27T01:46:12.971Z,7.82
2023-04-27T01:48:41.914Z,9.10
2023-04-27T01:51:10.422Z,10.73
2023-04-27T01:53:38.870Z,8.53
2023-04-27T01:56:07.799Z,10.80
2023-04-27T01:58:37.630Z,8.37
2023-04-27T02:01:06.101Z,10.67
2023-04-27T02:03:34.686Z,10.23
2023-04-27T02:06:03.276Z,11.00
2023-04-27T02:08:31.694Z,11.23
2023-04-27T02:11:00.167Z,8.02
2023-04-27T02:13:28.613Z,10.48
2023-04-27T02:15:58.467Z,8.67
2023-04-27T02:18:27.879Z,10.05
2023-04-27T02:20:56.334Z,11.05
2023-04-27T02:23:24.804Z,12.70
2023-04-27T02:25:53.259Z,9.70
2023-04-27T02:28:21.723Z,9.73
2023-04-27T02:30:50.732Z,11.45
2023-04-27T02:33:21.400Z,9.95
2023-04-27T02:35:49.838Z,13.43
2023-04-27T02:38:18.258Z,10.60
2023-04-27T02:40:46.726Z,13.37
2023-04-27T02:43:15.122Z,13.52
2023-04-27T02:45:43.568Z,10.63
2023-04-27T02:48:11.994Z,11.95
2023-04-27T02:50:43.676Z,10.77
2023-04-27T02:53:12.140Z,9.75
2023-04-27T02:55:40.631Z,11.18
2023-04-27T02:58:09.114Z,14.02
2023-04-27T03:00:37.544Z,11.77
2023-04-27T03:03:06.502Z,15.13
2023-04-27T03:05:35.043Z,11.23
2023-04-27T03:08:04.852Z,11.93
2023-04-27T03:10:33.293Z,12.43
2023-04-27T03:13:01.699Z,16.30
2023-04-27T03:15:30.130Z,10.10
2023-04-27T03:17:58.594Z,14.98
2023-04-27T03:20:27.084Z,10.15
2023-04-27T03:22:55.515Z,11.77
2023-04-27T03:25:25.508Z,11.30
2023-04-27T03:27:53.945Z,10.15
2023-04-27T03:30:22.566Z,9.10
2023-04-27T03:32:51.011Z,10.85
2023-04-27T03:35:19.573Z,12.55
2023-04-27T03:37:48.035Z,10.30
2023-04-27T03:40:16.506Z,9.77
2023-04-27T03:42:46.301Z,9.98
2023-04-27T03:45:16.528Z,11.02
2023-04-27T03:47:44.981Z,10.40
2023-04-27T03:50:13.508Z,11.35
2023-04-27T03:52:41.999Z,11.75
2023-04-27T03:55:10.972Z,8.73
2023-04-27T03:57:39.562Z,9.80
2023-04-27T04:00:11.760Z,12.30
2023-04-27T04:02:40.474Z,10.23
2023-04-27T04:05:09.389Z,10.07
2023-04-27T04:07:37.964Z,10.30
2023-04-27T04:10:06.997Z,11.07
2023-04-27T04:12:35.477Z,10.27
2023-04-27T04:15:04.208Z,8.80
2023-04-27T04:17:34.229Z,8.60
2023-04-27T04:20:03.068Z,10.33
2023-04-27T04:22:31.480Z,12.23
2023-04-27T04:24:59.927Z,8.20
2023-04-27T04:27:28.362Z,8.70
2023-04-27T04:29:56.991Z,9.07
2023-04-27T04:32:28.412Z,8.80
2023-04-27T04:34:58.988Z,9.20
2023-04-27T04:37:27.574Z,9.30
2023-04-27T04:39:56.190Z,10.35
2023-04-27T04:42:24.670Z,13.20
2023-04-27T04:44:53.498Z,10.57
2023-04-27T04:47:22.340Z,11.63
2023-04-27T04:49:50.830Z,9.40
2023-04-27T04:52:21.296Z,11.88
2023-04-27T04:54:49.804Z,13.37
2023-04-27T04:57:18.221Z,12.53
2023-04-27T04:59:46.660Z,16.07
2023-04-27T05:02:15.155Z,10.10
2023-04-27T05:04:43.685Z,15.13
2023-04-27T05:07:15.015Z,11.50
2023-04-27T05:09:45.649Z,11.13
2023-04-27T05:12:14.190Z,11.40
2023-04-27T05:14:43.798Z,12.13
2023-04-27T05:17:12.714Z,10.85
2023-04-27T05:19:41.307Z,20.05
2023-04-27T05:22:09.846Z,12.33
2023-04-27T05:24:38.585Z,13.98
2023-04-27T05:27:08.457Z,14.40
2023-04-27T05:29:36.939Z,10.80
2023-04-27T05:32:05.622Z,11.95
2023-04-27T05:34:34.252Z,13.48
2023-04-27T05:37:03.160Z,10.75
2023-04-27T05:39:31.682Z,10.30
2023-04-27T05:42:00.152Z,12.65
2023-04-27T05:44:30.032Z,12.13
2023-04-27T05:46:58.460Z,13.75
2023-04-27T05:49:27.187Z,13.80
2023-04-27T05:51:55.631Z,11.43
2023-04-27T05:54:24.229Z,12.43
2023-04-27T05:56:52.989Z,11.25
2023-04-27T05:59:21.916Z,14.20
2023-04-27T06:01:51.820Z,13.48
2023-04-27T06:04:20.596Z,13.80
2023-04-27T06:06:49.148Z,11.18
2023-04-27T06:09:17.565Z,11.32
2023-04-27T06:11:47.496Z,10.15
2023-04-27T06:14:16.368Z,10.48
2023-04-27T06:16:44.876Z,9.40
2023-04-27T06:19:15.051Z,9.23
2023-04-27T06:21:43.879Z,16.45
2023-04-27T06:24:12.336Z,9.80
2023-04-27T06:26:40.799Z,10.77
2023-04-27T06:29:09.257Z,11.30
2023-04-27T06:31:37.773Z,9.68
2023-04-27T06:34:06.656Z,9.02
2023-04-27T06:36:36.498Z,7.07
2023-04-27T06:39:05.005Z,9.10
2023-04-27T06:41:33.865Z,9.75
2023-04-27T06:44:02.364Z,9.13
2023-04-27T06:46:31.034Z,9.68
2023-04-27T06:48:59.492Z,8.80
2023-04-27T06:51:28.434Z,6.72
2023-04-27T06:53:58.277Z,6.88
2023-04-27T06:56:26.733Z,7.65
2023-04-27T06:58:55.152Z,7.63
2023-04-27T07:01:23.636Z,7.63
2023-04-27T07:03:52.298Z,9.32
2023-04-27T07:06:20.866Z,8.98
2023-04-27T07:08:49.281Z,10.10
2023-04-27T07:11:19.249Z,8.15
2023-04-27T07:13:47.765Z,9.52
2023-04-27T07:16:17.420Z,10.10
2023-04-27T07:18:46.141Z,9.88
2023-04-27T07:21:14.645Z,9.50
2023-04-27T07:23:43.094Z,7.60
2023-04-27T07:26:11.625Z,13.98
2023-04-27T07:28:41.456Z,12.63
2023-04-27T07:31:10.040Z,9.95
2023-04-27T07:33:38.580Z,9.20
2023-04-27T07:36:07.980Z,11.57
2023-04-27T07:38:38.485Z,10.77
2023-04-27T07:41:07.611Z,9.02
2023-04-27T07:43:36.197Z,7.70
2023-04-27T07:46:06.463Z,12.90
2023-04-27T07:48:34.984Z,28.10
2023-04-27T07:51:03.579Z,15.32
2023-04-27T07:53:32.251Z,18.38
2023-04-27T07:56:01.052Z,8.30
2023-04-27T07:58:29.546Z,8.55
2023-04-27T08:00:58.066Z,6.90
2023-04-27T08:03:28.374Z,5.75
2023-04-27T08:05:57.470Z,10.18
2023-04-27T08:08:26.240Z,8.70
2023-04-27T08:10:54.710Z,11.60
2023-04-27T08:13:24.809Z,7.53
2023-04-27T08:15:58.447Z,8.38
2023-04-27T08:18:28.599Z,8.63
2023-04-27T08:20:57.185Z,7.03
2023-04-27T08:23:28.752Z,8.38
2023-04-27T08:25:57.544Z,10.15
2023-04-27T08:28:26.025Z,6.35
2023-04-27T08:30:54.617Z,6.82
2023-04-27T08:33:23.215Z,6.07
2023-04-27T08:35:55.678Z,4.97
2023-04-27T08:38:25.685Z,3.90
2023-04-27T08:40:54.307Z,5.97
2023-04-27T08:43:22.769Z,5.63
2023-04-27T08:45:52.941Z,6.20
2023-04-27T08:48:24.505Z,5.80
2023-04-27T08:50:54.735Z,4.68
2023-04-27T08:53:23.646Z,6.60
2023-04-27T08:55:52.566Z,3.90
2023-04-27T08:58:21.003Z,6.57
2023-04-27T09:00:52.504Z,6.90
2023-04-27T09:03:21.921Z,5.28
2023-04-27T09:06:03.556Z,7.13
2023-04-27T09:08:44.547Z,5.72
2023-04-27T09:11:13.218Z,5.97
2023-04-27T09:13:42.427Z,5.72
2023-04-27T09:16:11.506Z,8.45
2023-04-27T09:18:43.695Z,6.25
2023-04-27T09:21:12.566Z,7.35
2023-04-27T09:23:41.943Z,4.65
2023-04-27T09:26:11.770Z,6.47
2023-04-27T09:28:41.393Z,12.90
2023-04-27T09:31:10.840Z,4.90
2023-04-27T09:33:39.401Z,3.08
2023-04-27T09:36:08.593Z,3.30
2023-04-27T09:38:37.103Z,3.20
2023-04-27T09:41:05.572Z,5.35
2023-04-27T09:43:35.499Z,4.15
2023-04-27T09:46:06.750Z,3.47
2023-04-27T09:48:35.466Z,6.57
2023-04-27T09:51:04.174Z,5.45
2023-04-27T09:53:36.120Z,4.03
2023-04-27T09:56:12.074Z,3.50
2023-04-27T09:58:52.748Z,6.45
2023-04-27T10:01:25.719Z,4.68
2023-04-27T10:04:03.899Z,7.72
2023-04-27T10:06:47.913Z,6.43
2023-04-27T10:09:17.538Z,3.65
2023-04-27T10:11:47.904Z,4.68
2023-04-27T10:14:19.991Z,6.88
2023-04-27T10:16:49.160Z,6.05
2023-04-27T10:19:17.652Z,4.53
2023-04-27T10:21:57.075Z,4.72
2023-04-27T10:24:38.297Z,4.43
2023-04-27T10:27:07.873Z,4.57
2023-04-27T10:29:41.973Z,5.25
2023-04-27T10:32:11.768Z,5.53
2023-04-27T10:34:41.302Z,4.18
2023-04-27T10:37:10.984Z,6.70
2023-04-27T10:39:47.847Z,5.65
2023-04-27T10:42:28.412Z,5.90
2023-04-27T10:45:00.052Z,4.95
2023-04-27T10:47:38.515Z,4.78
2023-04-27T10:50:08.101Z,5.80
2023-04-27T10:52:36.696Z,6.57
2023-04-27T10:55:18.360Z,5.22
2023-04-27T10:57:51.080Z,4.60
2023-04-27T11:00:25.724Z,5.93
2023-04-27T11:02:54.829Z,4.57
2023-04-27T11:05:24.833Z,8.70
2023-04-27T11:07:53.608Z,5.13
2023-04-27T11:10:22.161Z,4.72
2023-04-27T11:12:50.607Z,4.03
2023-04-27T11:15:19.147Z,6.68
2023-04-27T11:17:49.253Z,6.05
2023-04-27T11:20:26.629Z,5.18
2023-04-27T11:22:55.259Z,6.97
2023-04-27T11:25:29.148Z,4.88
2023-04-27T11:27:57.653Z,6.40
2023-04-27T11:30:27.432Z,5.10
2023-04-27T11:32:57.451Z,6.50
2023-04-27T11:35:34.839Z,6.80
2023-04-27T11:38:03.471Z,5.05
2023-04-27T11:40:32.402Z,4.00
2023-04-27T11:43:04.086Z,3.85
2023-04-27T11:45:32.697Z,5.82
2023-04-27T11:48:03.888Z,4.20
2023-04-27T11:50:32.462Z,4.28
2023-04-27T11:53:02.862Z,4.47
2023-04-27T11:55:31.759Z,4.10
2023-04-27T11:58:00.340Z,4.80
2023-04-27T12:00:30.121Z,3.70
2023-04-27T12:02:59.882Z,3.53
2023-04-27T12:05:30.206Z,7.18
2023-04-27T12:07:58.945Z,5.30
2023-04-27T12:10:27.472Z,6.25
2023-04-27T12:12:56.055Z,5.55
2023-04-27T12:15:24.677Z,7.65
2023-04-27T12:17:53.276Z,4.90
2023-04-27T12:20:21.955Z,5.88
2023-04-27T12:22:51.842Z,4.53
2023-04-27T12:25:20.945Z,4.63
2023-04-27T12:27:49.427Z,4.13
2023-04-27T12:30:17.875Z,4.28
2023-04-27T12:32:46.355Z,5.80
2023-04-27T12:35:14.883Z,4.00
2023-04-27T12:37:43.521Z,4.20
2023-04-27T12:40:14.281Z,5.70
2023-04-27T12:42:42.892Z,6.68
2023-04-27T12:45:11.726Z,6.30
2023-04-27T12:50:15.783Z,5.13
2023-04-27T12:52:44.218Z,5.05
2023-04-27T12:55:28.933Z,4.40
2023-04-27T12:58:01.390Z,4.45
2023-04-27T13:00:30.556Z,6.78
2023-04-27T13:02:59.871Z,5.18
2023-04-27T13:05:31.257Z,4.30
2023-04-27T13:08:00.459Z,5.25
2023-04-27T13:10:31.164Z,6.45
2023-04-27T13:13:00.114Z,6.80
2023-04-27T13:15:29.726Z,5.63
2023-04-27T13:17:59.073Z,7.15
2023-04-27T13:20:27.864Z,7.25
2023-04-27T13:22:56.459Z,6.95
2023-04-27T13:25:26.936Z,9.15
2023-04-27T13:27:57.980Z,5.22
2023-04-27T13:30:26.519Z,8.68
2023-04-27T13:32:55.269Z,5.65
2023-04-27T13:35:26.518Z,6.55
2023-04-27T13:37:55.047Z,6.22
2023-04-27T13:40:23.608Z,7.80
2023-04-27T13:42:52.085Z,6.38
2023-04-27T13:45:22.386Z,7.93
2023-04-27T13:47:50.900Z,5.78
2023-04-27T13:50:19.417Z,8.90
2023-04-27T13:52:48.059Z,7.10
2023-04-27T13:55:16.542Z,6.95
2023-04-27T13:57:44.968Z,5.63
2023-04-27T14:00:14.232Z,6.53
2023-04-27T14:02:44.127Z,6.85
2023-04-27T14:05:12.764Z,7.25
2023-04-27T14:07:41.351Z,5.80
2023-04-27T14:10:10.318Z,5.90
2023-04-27T14:12:38.844Z,6.53
2023-04-27T14:15:07.635Z,6.72
2023-04-27T14:17:36.117Z,6.40
2023-04-27T14:20:07.000Z,8.63
2023-04-27T14:22:35.897Z,6.00
2023-04-27T14:25:04.645Z,5.30
2023-04-27T14:27:33.072Z,10.45
2023-04-27T14:30:02.232Z,5.90
2023-04-27T14:32:30.727Z,5.57
2023-04-27T14:34:59.558Z,7.18
2023-04-27T14:37:29.400Z,7.28
2023-04-27T14:39:58.873Z,9.50
2023-04-27T14:42:27.612Z,8.10
2023-04-27T14:44:56.499Z,5.90
2023-04-27T14:47:25.079Z,8.13
2023-04-27T14:49:53.672Z,8.50
2023-04-27T14:52:22.133Z,6.38
2023-04-27T14:54:52.213Z,6.65
2023-04-27T14:57:20.896Z,8.45
2023-04-27T14:59:49.411Z,9.48
2023-04-27T15:02:18.701Z,6.88
2023-04-27T15:04:47.614Z,6.95
2023-04-27T15:07:16.117Z,5.78
2023-04-27T15:09:44.665Z,8.18
2023-04-27T15:12:14.541Z,6.28
2023-04-27T15:14:43.034Z,7.45
2023-04-27T15:17:13.326Z,7.18
2023-04-27T15:19:41.824Z,6.25
2023-04-27T15:22:10.735Z,6.57
2023-04-27T15:24:39.268Z,6.07
2023-04-27T15:27:09.744Z,9.77
2023-04-27T15:29:40.109Z,6.40
2023-04-27T15:34:32.644Z,6.70
2023-04-27T15:37:02.906Z,10.30
2023-04-27T15:39:31.813Z,8.45
2023-04-27T15:42:01.527Z,5.43
2023-04-27T15:44:29.996Z,7.43
2023-04-27T15:46:58.480Z,7.63
2023-04-27T15:49:28.485Z,9.77
2023-04-27T15:51:58.332Z,7.32
2023-04-27T15:54:27.062Z,8.93
2023-04-27T15:56:55.512Z,8.40
2023-04-27T15:59:23.974Z,7.72
2023-04-27T16:01:52.419Z,6.57
2023-04-27T16:04:21.363Z,8.38
2023-04-27T16:06:49.936Z,8.02
2023-04-27T16:09:20.230Z,6.10
2023-04-27T16:11:48.861Z,8.95
2023-04-27T16:14:17.310Z,5.53
2023-04-27T16:16:46.127Z,7.03
2023-04-27T16:19:15.369Z,9.10
2023-04-27T16:21:45.046Z,8.43
2023-04-27T16:24:13.528Z,7.38
2023-04-27T16:26:43.841Z,8.15
2023-04-27T16:29:12.742Z,6.85
2023-04-27T16:31:42.753Z,5.93
2023-04-27T16:34:11.406Z,6.50
2023-04-27T16:36:39.980Z,8.10
2023-04-27T16:39:09.575Z,9.30
2023-04-27T16:41:38.276Z,6.18
2023-04-27T16:44:08.213Z,10.13
2023-04-27T16:46:36.965Z,8.10
2023-04-27T16:49:05.858Z,7.97
2023-04-27T16:51:34.652Z,7.95
2023-04-27T16:54:03.612Z,10.57
2023-04-27T16:56:32.592Z,8.05
2023-04-27T16:59:01.386Z,7.95
2023-04-27T17:01:31.334Z,6.05
2023-04-27T17:04:01.325Z,6.82
2023-04-27T17:06:30.163Z,11.50
2023-04-27T17:08:58.893Z,8.93
2023-04-27T17:11:27.524Z,10.77
2023-04-27T17:13:56.316Z,6.53
2023-04-27T17:16:26.965Z,6.90
2023-04-27T17:18:57.301Z,8.95
2023-04-27T17:21:26.876Z,9.50
2023-04-27T17:23:55.725Z,6.93
2023-04-27T17:26:24.251Z,7.88
2023-04-27T17:28:53.135Z,7.75
2023-04-27T17:31:21.640Z,8.23
2023-04-27T17:33:50.142Z,7.43
2023-04-27T17:36:20.029Z,7.82
2023-04-27T17:38:48.822Z,6.65
2023-04-27T17:41:17.284Z,12.05
2023-04-27T17:43:45.852Z,9.48
2023-04-27T17:46:14.659Z,8.05
2023-04-27T17:48:44.174Z,8.88
2023-04-27T17:51:12.627Z,6.30
2023-04-27T17:53:42.440Z,6.95
2023-04-27T17:56:10.952Z,6.18
2023-04-27T17:58:39.375Z,7.97
2023-04-27T18:01:10.038Z,9.35
2023-04-27T18:03:38.726Z,7.22
2023-04-27T18:06:08.116Z,7.38
2023-04-27T18:08:36.578Z,8.85
2023-04-27T18:11:06.785Z,8.45
2023-04-27T18:13:35.307Z,9.55
2023-04-27T18:16:04.214Z,10.18
2023-04-27T18:18:32.751Z,8.35
2023-04-27T18:21:01.366Z,7.80
2023-04-27T18:23:29.874Z,8.68
2023-04-27T18:26:00.637Z,8.07
2023-04-27T18:28:30.674Z,10.40
2023-04-27T18:30:59.478Z,6.78
2023-04-27T18:33:28.043Z,6.75
2023-04-27T18:35:56.603Z,8.10
2023-04-27T18:38:25.051Z,9.88
2023-04-27T18:40:53.544Z,8.02
2023-04-27T18:43:22.164Z,8.55
2023-04-27T18:45:52.669Z,7.38
2023-04-27T18:48:21.379Z,9.82
2023-04-27T18:50:49.848Z,7.15
2023-04-27T18:53:18.339Z,11.73
2023-04-27T18:55:46.816Z,7.10
2023-04-27T18:58:15.996Z,7.22
2023-04-27T19:00:44.468Z,11.23
2023-04-27T19:03:14.627Z,7.22
2023-04-27T19:05:43.936Z,8.25
2023-04-27T19:08:12.532Z,8.82
2023-04-27T19:10:42.287Z,7.05
2023-04-27T19:13:10.793Z,7.47
2023-04-27T19:15:39.895Z,8.85
2023-04-27T19:18:11.176Z,7.32
2023-04-27T19:20:41.793Z,7.50
2023-04-27T19:23:12.571Z,7.97
2023-04-27T19:25:41.450Z,7.70
2023-04-27T19:28:10.427Z,7.68
2023-04-27T19:30:39.122Z,7.95
2023-04-27T19:33:07.671Z,7.50
2023-04-27T19:35:36.366Z,8.25
2023-04-27T19:38:06.619Z,8.02
2023-04-27T19:40:35.437Z,6.90
2023-04-27T19:43:04.463Z,7.78
2023-04-27T19:45:33.548Z,8.35
2023-04-27T19:48:02.131Z,8.82
2023-04-27T19:50:30.620Z,11.63
2023-04-27T19:52:59.315Z,9.10
2023-04-27T19:55:30.861Z,9.65
2023-04-27T19:57:59.392Z,8.85
2023-04-27T20:00:29.631Z,7.13
2023-04-27T20:02:58.232Z,6.85
2023-04-27T20:05:27.071Z,7.05
2023-04-27T20:07:55.610Z,7.35
2023-04-27T20:10:24.083Z,8.68
2023-04-27T20:12:57.090Z,6.50
2023-04-27T20:15:25.836Z,7.80
2023-04-27T20:17:54.646Z,8.30
2023-04-27T20:20:23.688Z,7.70
2023-04-27T20:22:52.193Z,5.95
2023-04-27T20:25:20.859Z,7.60
2023-04-27T20:27:49.305Z,8.93
2023-04-27T20:30:19.349Z,6.15
2023-04-27T20:32:48.667Z,9.07
2023-04-27T20:35:17.194Z,7.40
2023-04-27T20:37:46.141Z,7.38
2023-04-27T20:40:17.920Z,9.82
2023-04-27T20:42:46.796Z,8.50
2023-04-27T20:45:15.356Z,8.50
2023-04-27T20:47:45.564Z,7.00
2023-04-27T20:50:14.267Z,8.25
2023-04-27T20:52:42.894Z,6.70
2023-04-27T20:55:11.448Z,6.55
2023-04-27T20:57:39.888Z,6.60
2023-04-27T21:00:09.994Z,8.30
2023-04-27T21:02:38.974Z,7.28
2023-04-27T21:05:09.175Z,8.70
2023-04-27T21:07:37.731Z,9.15
2023-04-27T21:10:07.160Z,8.50
2023-04-27T21:12:35.741Z,9.95
2023-04-27T21:15:04.245Z,6.78
2023-04-27T21:17:32.831Z,6.43
2023-04-27T21:20:01.539Z,6.65
2023-04-27T21:22:31.334Z,8.10
2023-04-27T21:24:59.767Z,6.55
2023-04-27T21:27:29.583Z,8.75
2023-04-27T21:29:58.012Z,6.13
2023-04-27T21:32:26.449Z,6.95
2023-04-27T21:34:54.875Z,6.97
2023-04-27T21:37:23.310Z,7.43
2023-04-27T21:39:53.165Z,5.85
2023-04-27T21:42:21.677Z,8.93
2023-04-27T21:44:50.119Z,7.20
2023-04-27T21:47:18.577Z,7.45
2023-04-27T21:49:47.090Z,7.07
2023-04-27T21:52:15.570Z,7.30
2023-04-27T21:54:43.977Z,10.52
2023-04-27T21:57:13.828Z,5.78
2023-04-27T21:59:42.379Z,7.75
2023-04-27T22:02:10.978Z,9.50
2023-04-27T22:04:39.643Z,6.60
2023-04-27T22:07:08.964Z,5.95
2023-04-27T22:09:37.638Z,6.00
2023-04-27T22:12:06.581Z,6.85
2023-04-27T22:14:36.487Z,6.97
2023-04-27T22:17:05.013Z,6.32
2023-04-27T22:19:34.029Z,7.97
2023-04-27T22:22:02.600Z,8.93
2023-04-27T22:24:31.379Z,5.93
2023-04-27T22:26:59.955Z,6.15
2023-04-27T22:29:28.562Z,9.05
2023-04-27T22:31:58.410Z,8.48
2023-04-27T22:34:27.383Z,13.38
2023-04-27T22:36:56.935Z,7.90
2023-04-27T22:39:26.392Z,7.03
2023-04-27T22:41:54.861Z,7.18
2023-04-27T22:44:23.392Z,8.02
2023-04-27T22:46:52.171Z,6.15
2023-04-27T22:49:22.255Z,6.53
2023-04-27T22:51:50.674Z,6.68
2023-04-27T22:54:19.099Z,6.97
2023-04-27T22:56:47.535Z,7.28
2023-04-27T22:59:16.008Z,6.72
2023-04-27T23:01:44.426Z,6.95
2023-04-27T23:04:14.078Z,8.18
2023-04-27T23:06:44.460Z,5.75
2023-04-27T23:09:13.020Z,8.80
2023-04-27T23:11:41.464Z,6.97
2023-04-27T23:14:11.669Z,6.40
2023-04-27T23:16:40.541Z,6.95
2023-04-27T23:19:09.156Z,6.53
2023-04-27T23:21:37.705Z,7.13
2023-04-27T23:24:07.947Z,7.53
2023-04-27T23:26:36.370Z,7.55
2023-04-27T23:29:04.834Z,8.27
2023-04-27T23:31:33.377Z,10.70
2023-04-27T23:34:01.892Z,8.98
2023-04-27T23:36:30.812Z,8.55
2023-04-27T23:38:59.268Z,9.20
2023-04-27T23:41:29.067Z,7.75
2023-04-27T23:43:57.578Z,11.75
2023-04-27T23:46:26.099Z,7.82
2023-04-27T23:48:54.545Z,8.52
2023-04-27T23:51:23.081Z,10.98
2023-04-27T23:53:51.564Z,8.75
2023-04-27T23:56:20.018Z,7.82
2023-04-27T23:58:49.858Z,11.60
